Time;durP1;ratioP1;P1;durP2;ratioP2;P2;SDS_P1;SDS_P2;PMS_P1;PMS_P2;Temp;Humidity;BMP_temperature;BMP_pressure;BME280_temperature;BME280_humidity;BME280_pressure;Samples;Min_cycle;Max_cycle;Signal;HPM_P1;HPM_P2
2020/12/07 00:00:41;;;;;;;5.07;4.57;;;2.80;99.90;;;;;;5032010;28;20026;-71
2020/12/07 00:03:07;;;;;;;5.32;4.13;;;2.80;99.90;;;;;;5030765;28;20021;-71
2020/12/07 00:05:32;;;;;;;6.10;4.88;;;2.90;99.90;;;;;;5032368;28;20475;-70
2020/12/07 00:08:00;;;;;;;5.22;4.72;;;2.80;99.90;;;;;;5032103;28;20030;-70
2020/12/07 00:10:26;;;;;;;7.00;4.60;;;2.80;99.90;;;;;;5032239;28;20030;-70
2020/12/07 00:12:51;;;;;;;4.50;4.05;;;2.90;99.90;;;;;;5031351;28;20025;-70
2020/12/07 00:15:17;;;;;;;5.32;4.10;;;2.80;99.90;;;;;;5031976;28;20099;-70
2020/12/07 00:17:43;;;;;;;3.75;3.03;;;2.80;99.90;;;;;;5031925;28;20472;-71
2020/12/07 00:20:09;;;;;;;3.15;2.90;;;2.80;99.90;;;;;;5031717;28;20051;-71
2020/12/07 00:22:36;;;;;;;6.25;3.50;;;2.80;99.90;;;;;;5031778;28;20021;-70
2020/12/07 00:25:03;;;;;;;3.40;2.97;;;2.80;99.90;;;;;;5031410;28;20026;-71
2020/12/07 00:27:30;;;;;;;5.13;3.10;;;2.80;99.90;;;;;;5031787;28;20022;-70
2020/12/07 00:29:57;;;;;;;3.13;2.83;;;2.80;99.90;;;;;;5031858;28;20029;-70
2020/12/07 00:32:24;;;;;;;3.17;2.90;;;2.90;99.90;;;;;;5031539;28;20583;-70
2020/12/07 00:34:51;;;;;;;2.88;2.60;;;2.70;99.90;;;;;;5030926;28;20379;-70
2020/12/07 00:37:18;;;;;;;3.58;3.03;;;2.70;99.90;;;;;;5031601;28;20025;-70
2020/12/07 00:39:43;;;;;;;4.47;3.20;;;2.80;99.90;;;;;;5031464;28;20022;-70
2020/12/07 00:42:10;;;;;;;3.25;2.85;;;2.80;99.90;;;;;;5031690;28;20048;-71
2020/12/07 00:44:40;;;;;;;3.30;2.70;;;2.90;99.90;;;;;;5030762;28;20037;-70
2020/12/07 00:47:06;;;;;;;2.92;2.63;;;2.80;99.90;;;;;;5031348;28;20025;-70
2020/12/07 00:49:33;;;;;;;3.40;3.10;;;2.80;99.90;;;;;;5031621;28;20468;-70
2020/12/07 00:51:59;;;;;;;2.78;2.53;;;2.80;99.90;;;;;;5031296;28;20030;-70
2020/12/07 00:54:24;;;;;;;2.20;2.05;;;2.80;99.90;;;;;;5030639;28;20431;-71
2020/12/07 00:56:54;;;;;;;3.25;2.90;;;2.80;99.90;;;;;;5031562;28;20031;-70
2020/12/07 00:59:20;;;;;;;3.05;2.78;;;2.90;99.90;;;;;;5031490;28;20029;-70
2020/12/07 01:01:46;;;;;;;3.38;2.75;;;2.90;99.90;;;;;;5030662;28;20056;-69
2020/12/07 01:04:12;;;;;;;3.30;2.10;;;2.90;99.90;;;;;;5030775;28;20061;-70
2020/12/07 01:06:37;;;;;;;2.67;2.22;;;2.90;99.90;;;;;;5031447;28;20017;-70
2020/12/07 01:09:03;;;;;;;2.70;2.35;;;3.00;99.90;;;;;;5031381;28;20100;-70
2020/12/07 01:11:29;;;;;;;2.72;2.22;;;2.90;99.90;;;;;;5030057;28;20060;-70
2020/12/07 01:13:55;;;;;;;2.55;2.35;;;3.00;99.90;;;;;;5033376;28;20452;-70
2020/12/07 01:16:22;;;;;;;2.63;2.42;;;3.00;99.90;;;;;;5034806;28;20068;-69
2020/12/07 01:18:49;;;;;;;3.08;2.42;;;3.00;99.90;;;;;;5035278;28;20116;-70
2020/12/07 01:21:16;;;;;;;4.50;2.65;;;3.00;99.90;;;;;;5035181;28;20061;-70
2020/12/07 01:23:44;;;;;;;2.70;2.50;;;3.10;99.90;;;;;;5034612;28;20104;-70
2020/12/07 01:26:11;;;;;;;3.10;2.78;;;3.00;99.90;;;;;;5035177;28;20502;-70
2020/12/07 01:28:37;;;;;;;3.13;2.83;;;3.10;99.90;;;;;;5035104;28;20428;-70
2020/12/07 01:31:03;;;;;;;3.22;3.00;;;3.10;99.90;;;;;;5034628;28;20112;-70
2020/12/07 01:33:28;;;;;;;2.95;2.70;;;3.10;99.90;;;;;;5034170;28;20025;-70
2020/12/07 01:35:55;;;;;;;2.92;2.72;;;3.10;99.90;;;;;;5034997;28;20042;-69
2020/12/07 01:38:21;;;;;;;2.83;2.63;;;3.10;99.90;;;;;;5034912;28;20079;-70
2020/12/07 01:40:46;;;;;;;3.90;2.65;;;3.10;99.90;;;;;;5034854;28;20033;-70
2020/12/07 01:43:12;;;;;;;3.15;2.95;;;3.20;99.90;;;;;;5034075;28;20380;-70
2020/12/07 01:45:38;;;;;;;4.15;2.90;;;3.10;99.90;;;;;;5034825;28;20033;-70
2020/12/07 01:48:05;;;;;;;3.40;3.10;;;3.10;99.90;;;;;;5034259;28;20500;-70
2020/12/07 01:50:31;;;;;;;2.80;2.60;;;3.10;99.90;;;;;;5034911;28;20025;-69
2020/12/07 01:52:59;;;;;;;3.17;2.60;;;3.10;99.90;;;;;;5034072;28;20116;-70
2020/12/07 01:55:25;;;;;;;4.45;2.58;;;3.10;99.90;;;;;;5034597;28;20581;-70
2020/12/07 01:57:51;;;;;;;2.95;2.72;;;3.10;99.90;;;;;;5034621;28;20048;-70
2020/12/07 02:00:17;;;;;;;2.63;2.42;;;3.10;99.90;;;;;;5033168;28;20029;-70
2020/12/07 02:02:43;;;;;;;3.40;2.95;;;3.20;99.90;;;;;;5033256;28;20033;-70
2020/12/07 02:05:08;;;;;;;2.90;2.70;;;3.10;99.90;;;;;;5034462;28;20550;-70
2020/12/07 02:07:34;;;;;;;2.55;2.35;;;3.10;99.90;;;;;;5034325;28;20365;-70
2020/12/07 02:09:59;;;;;;;3.22;2.70;;;3.10;99.90;;;;;;5035783;28;20025;-70
2020/12/07 02:12:25;;;;;;;2.90;2.70;;;3.10;99.90;;;;;;5034449;28;20060;-70
2020/12/07 02:14:51;;;;;;;3.22;2.92;;;3.10;99.90;;;;;;5033435;28;20021;-69
2020/12/07 02:17:17;;;;;;;2.90;2.60;;;3.10;99.90;;;;;;5035352;28;20033;-70
2020/12/07 02:19:42;;;;;;;4.07;2.90;;;3.10;99.90;;;;;;5033844;28;20025;-70
2020/12/07 02:22:08;;;;;;;3.03;2.78;;;3.20;99.90;;;;;;5034226;28;20092;-70
2020/12/07 02:24:33;;;;;;;2.90;2.60;;;3.10;99.90;;;;;;5032503;28;20566;-71
2020/12/07 02:26:59;;;;;;;3.13;2.92;;;3.10;99.90;;;;;;5034059;28;20079;-70
2020/12/07 02:29:29;;;;;;;2.95;2.67;;;3.00;99.90;;;;;;5033907;28;20028;-70
2020/12/07 02:32:18;;;;;;;3.58;3.03;;;3.00;99.90;;;;;;5033492;28;20029;-70
2020/12/07 02:34:44;;;;;;;3.25;3.00;;;3.10;99.90;;;;;;5033454;28;20104;-71
2020/12/07 02:37:10;;;;;;;3.88;3.50;;;3.20;99.90;;;;;;5033938;28;20060;-70
2020/12/07 02:39:37;;;;;;;2.78;2.58;;;3.10;99.90;;;;;;5033722;28;20068;-70
2020/12/07 02:42:04;;;;;;;3.42;3.13;;;3.20;99.90;;;;;;5033994;28;20068;-70
2020/12/07 02:44:30;;;;;;;3.00;2.80;;;3.20;99.90;;;;;;5033075;28;20371;-71
2020/12/07 02:46:59;;;;;;;3.20;2.90;;;3.10;99.90;;;;;;5032397;28;20113;-70
2020/12/07 02:49:27;;;;;;;2.47;2.28;;;3.10;99.90;;;;;;5033717;28;20506;-70
2020/12/07 02:51:52;;;;;;;3.00;2.80;;;3.10;99.90;;;;;;5033726;28;20142;-70
2020/12/07 02:54:18;;;;;;;4.60;3.00;;;3.10;99.90;;;;;;5033290;28;20531;-70
2020/12/07 02:56:44;;;;;;;3.28;3.05;;;3.20;99.90;;;;;;5033765;28;20083;-70
2020/12/07 02:59:10;;;;;;;2.63;2.38;;;3.20;99.90;;;;;;5033657;28;20415;-70
2020/12/07 03:01:36;;;;;;;3.75;3.35;;;3.20;99.90;;;;;;5033142;28;20026;-70
2020/12/07 03:04:02;;;;;;;3.75;3.35;;;3.20;99.90;;;;;;5032872;28;20018;-70
2020/12/07 03:06:27;;;;;;;3.15;2.78;;;3.30;99.90;;;;;;5033568;28;20052;-70
2020/12/07 03:08:54;;;;;;;3.28;2.75;;;3.20;99.90;;;;;;5032057;28;20034;-70
2020/12/07 03:11:21;;;;;;;3.70;3.38;;;3.30;99.90;;;;;;5033486;28;20025;-70
2020/12/07 03:13:47;;;;;;;3.40;3.10;;;3.40;99.90;;;;;;5032458;28;20135;-70
2020/12/07 03:16:13;;;;;;;3.60;3.30;;;3.30;99.90;;;;;;5032785;28;20053;-70
2020/12/07 03:18:38;;;;;;;3.50;3.15;;;3.40;99.90;;;;;;5033030;28;20087;-70
2020/12/07 03:21:04;;;;;;;3.40;3.10;;;3.40;99.90;;;;;;5033280;28;20029;-70
2020/12/07 03:23:30;;;;;;;3.45;3.10;;;3.40;99.90;;;;;;5032080;28;20419;-70
2020/12/07 03:25:55;;;;;;;3.75;3.40;;;3.20;99.90;;;;;;5032966;28;20506;-71
2020/12/07 03:28:21;;;;;;;3.13;2.90;;;3.30;99.90;;;;;;5033251;28;20026;-70
2020/12/07 03:30:47;;;;;;;5.88;3.55;;;3.30;99.90;;;;;;5033008;28;20112;-70
2020/12/07 03:33:12;;;;;;;3.42;3.13;;;3.40;99.90;;;;;;5032058;28;20021;-70
2020/12/07 03:35:38;;;;;;;3.60;3.30;;;3.30;99.90;;;;;;5032890;28;20022;-70
2020/12/07 03:38:04;;;;;;;3.78;3.38;;;3.40;99.90;;;;;;5032930;28;20112;-70
2020/12/07 03:40:33;;;;;;;3.40;3.13;;;3.40;99.90;;;;;;5032664;28;20079;-70
2020/12/07 03:42:59;;;;;;;3.67;3.38;;;3.40;99.90;;;;;;5031961;28;20017;-70
2020/12/07 03:45:25;;;;;;;3.70;3.33;;;3.30;99.90;;;;;;5032796;28;20460;-70
2020/12/07 03:47:51;;;;;;;3.40;3.10;;;3.30;99.90;;;;;;5032597;28;20071;-70
2020/12/07 03:50:16;;;;;;;3.75;3.25;;;3.30;99.90;;;;;;5032297;28;20443;-69
2020/12/07 03:52:42;;;;;;;4.32;3.60;;;3.30;99.90;;;;;;5031678;28;20063;-70
2020/12/07 03:55:08;;;;;;;3.75;3.45;;;3.40;99.90;;;;;;5032440;28;20027;-70
2020/12/07 03:57:33;;;;;;;3.67;3.38;;;3.40;99.90;;;;;;5032435;28;20126;-70
2020/12/07 03:59:59;;;;;;;3.60;3.30;;;3.30;99.90;;;;;;5030762;28;20507;-70
2020/12/07 04:02:26;;;;;;;3.50;2.92;;;3.40;99.90;;;;;;5032252;28;20025;-70
2020/12/07 04:05:02;;;;;;;4.03;2.90;;;3.40;99.90;;;;;;5031666;28;20105;-70
2020/12/07 04:07:27;;;;;;;3.25;2.95;;;3.40;99.90;;;;;;5032508;28;20033;-70
2020/12/07 04:09:53;;;;;;;3.53;3.15;;;3.40;99.90;;;;;;5032098;28;20075;-69
2020/12/07 04:12:18;;;;;;;3.80;3.20;;;3.40;99.90;;;;;;5032144;28;20392;-70
2020/12/07 04:14:44;;;;;;;3.85;3.45;;;3.40;99.90;;;;;;5031408;28;20488;-70
2020/12/07 04:17:10;;;;;;;4.25;3.85;;;3.30;99.90;;;;;;5031967;28;20503;-70
2020/12/07 04:19:35;;;;;;;4.57;3.90;;;3.30;99.90;;;;;;5031966;28;20033;-70
2020/12/07 04:22:01;;;;;;;4.75;4.30;;;3.20;99.90;;;;;;5032022;28;20022;-70
2020/12/07 04:24:27;;;;;;;4.25;3.85;;;3.20;99.90;;;;;;5031687;28;20101;-70
2020/12/07 04:26:52;;;;;;;4.20;3.65;;;3.10;99.90;;;;;;5032506;28;20441;-70
2020/12/07 04:29:18;;;;;;;5.20;3.60;;;3.10;99.90;;;;;;5032743;28;20492;-69
2020/12/07 04:31:43;;;;;;;4.00;3.70;;;3.10;99.90;;;;;;5031356;28;20025;-70
2020/12/07 04:34:09;;;;;;;3.67;3.30;;;3.10;99.90;;;;;;5031927;28;20083;-70
2020/12/07 04:36:35;;;;;;;4.32;3.70;;;3.10;99.90;;;;;;5032615;28;20044;-71
2020/12/07 04:39:00;;;;;;;4.63;4.20;;;3.00;99.90;;;;;;5032940;28;20025;-70
2020/12/07 04:41:26;;;;;;;4.28;3.88;;;3.00;99.90;;;;;;5045505;28;20033;-70
2020/12/07 04:43:52;;;;;;;5.50;4.13;;;3.00;99.90;;;;;;5047612;28;20482;-70
2020/12/07 04:46:18;;;;;;;6.03;3.72;;;3.00;99.90;;;;;;5042293;28;20531;-70
2020/12/07 04:48:45;;;;;;;4.30;3.90;;;3.00;99.90;;;;;;5041700;28;20045;-69
2020/12/07 04:51:12;;;;;;;4.40;4.00;;;2.90;99.90;;;;;;5042500;28;20025;-69
2020/12/07 04:53:40;;;;;;;6.38;4.15;;;2.90;99.90;;;;;;5040811;28;20060;-69
2020/12/07 04:56:06;;;;;;;5.03;4.53;;;2.90;99.90;;;;;;5042137;28;20041;-70
2020/12/07 04:58:34;;;;;;;5.60;4.93;;;2.80;99.90;;;;;;5040325;28;20472;-70
2020/12/07 05:01:00;;;;;;;4.97;4.28;;;2.80;99.90;;;;;;5037911;28;20369;-69
2020/12/07 05:03:25;;;;;;;5.97;4.95;;;2.80;99.90;;;;;;5020261;28;20032;-70
2020/12/07 05:05:52;;;;;;;6.40;5.22;;;2.80;99.90;;;;;;5022076;28;20030;-70
2020/12/07 05:08:18;;;;;;;6.35;5.25;;;2.80;99.90;;;;;;5021868;28;20018;-70
2020/12/07 05:10:45;;;;;;;8.23;5.78;;;2.80;99.90;;;;;;5021224;28;20094;-69
2020/12/07 05:13:26;;;;;;;6.22;5.00;;;2.70;99.90;;;;;;5020043;28;20026;-70
2020/12/07 05:15:52;;;;;;;8.82;6.13;;;2.70;99.90;;;;;;5020638;28;20025;-70
2020/12/07 05:18:18;;;;;;;8.15;6.43;;;2.70;99.90;;;;;;5020491;28;20036;-71
2020/12/07 05:20:44;;;;;;;8.07;6.55;;;2.70;99.90;;;;;;5040637;28;20124;-70
2020/12/07 05:23:14;;;;;;;9.15;6.07;;;2.70;99.90;;;;;;5039203;28;20068;-70
2020/12/07 05:25:47;;;;;;;8.05;6.35;;;2.70;99.90;;;;;;5040425;28;20021;-70
2020/12/07 05:28:21;;;;;;;7.93;6.35;;;2.70;99.90;;;;;;5042246;28;20098;-70
2020/12/07 05:30:50;;;;;;;8.75;6.35;;;2.60;99.90;;;;;;5043327;28;20093;-70
2020/12/07 05:33:18;;;;;;;9.25;6.60;;;2.50;99.90;;;;;;5040405;28;20029;-70
2020/12/07 05:35:53;;;;;;;9.48;6.47;;;2.40;99.90;;;;;;5041496;28;20029;-70
2020/12/07 05:38:19;;;;;;;7.85;6.60;;;2.40;99.90;;;;;;5040949;28;20037;-70
2020/12/07 05:40:45;;;;;;;10.80;7.68;;;2.30;99.90;;;;;;5041824;28;20029;-70
2020/12/07 05:43:14;;;;;;;11.90;7.75;;;2.30;99.90;;;;;;5038776;28;20430;-70
2020/12/07 05:45:41;;;;;;;10.80;7.13;;;2.20;99.90;;;;;;5035931;28;20041;-70
2020/12/07 05:48:09;;;;;;;10.77;7.55;;;2.10;99.90;;;;;;5039854;28;20059;-69
2020/12/07 05:50:41;;;;;;;11.15;7.53;;;2.00;99.90;;;;;;5043232;28;20447;-70
2020/12/07 05:53:07;;;;;;;;;;;1.90;99.90;;;;;;5035965;28;20133;-69
2020/12/07 05:55:34;;;;;;;9.27;7.10;;;1.90;99.90;;;;;;5037528;28;19937;-69
2020/12/07 05:58:02;;;;;;;8.50;7.15;;;1.80;99.90;;;;;;5035247;28;20399;-69
2020/12/07 06:00:31;;;;;;;11.30;7.72;;;1.80;99.90;;;;;;5037411;28;20036;-69
2020/12/07 06:02:59;;;;;;;14.82;8.38;;;1.70;99.90;;;;;;5036821;28;20091;-69
2020/12/07 06:05:24;;;;;;;11.63;8.63;;;1.70;99.90;;;;;;5038580;28;20388;-70
2020/12/07 06:08:14;;;;;;;10.80;8.23;;;1.70;99.90;;;;;;5040531;28;20022;-69
2020/12/07 06:10:51;;;;;;;11.63;8.55;;;1.60;99.90;;;;;;5047873;28;20060;-69
2020/12/07 06:13:23;;;;;;;11.52;8.60;;;1.50;99.90;;;;;;5038787;28;20040;-72
2020/12/07 06:15:51;;;;;;;10.80;8.63;;;1.50;99.90;;;;;;5037875;28;20076;-70
2020/12/07 06:18:31;;;;;;;11.18;8.18;;;1.60;99.90;;;;;;5037325;28;20167;-71
2020/12/07 06:21:16;;;;;;;14.13;10.65;;;1.60;99.90;;;;;;5035477;28;20025;-71
2020/12/07 06:23:43;;;;;;;9.70;7.78;;;1.60;99.90;;;;;;5034738;28;20025;-70
2020/12/07 06:26:11;;;;;;;9.43;7.72;;;1.50;99.90;;;;;;5034349;28;20022;-65
2020/12/07 06:28:39;;;;;;;10.10;8.07;;;1.40;99.90;;;;;;5034144;28;20104;-66
2020/12/07 06:31:06;;;;;;;11.40;8.55;;;1.40;99.90;;;;;;5033619;28;20037;-66
2020/12/07 06:33:39;;;;;;;10.90;7.72;;;1.30;99.90;;;;;;5033697;28;20391;-72
2020/12/07 06:36:05;;;;;;;10.77;8.20;;;1.20;99.90;;;;;;5036147;28;20119;-70
2020/12/07 06:38:43;;;;;;;11.65;8.50;;;1.20;99.90;;;;;;5038877;28;20033;-70
2020/12/07 06:41:10;;;;;;;15.27;10.18;;;1.10;99.90;;;;;;5030327;28;20054;-71
2020/12/07 06:43:35;;;;;;;12.77;9.43;;;1.00;99.90;;;;;;5013419;28;20026;-70
2020/12/07 06:46:01;;;;;;;15.70;10.52;;;1.00;99.90;;;;;;5014053;28;20037;-72
2020/12/07 06:48:27;;;;;;;14.63;10.82;;;0.90;99.90;;;;;;5015260;28;20057;-70
2020/12/07 06:50:55;;;;;;;18.35;10.52;;;0.90;99.90;;;;;;5013649;28;20049;-69
2020/12/07 06:55:53;;;;;;;12.85;9.73;;;0.80;99.90;;;;;;5015167;28;20030;-73
2020/12/07 06:58:36;;;;;;;16.17;9.57;;;0.80;99.90;;;;;;5015828;28;20025;-72
2020/12/07 07:01:13;;;;;;;17.02;10.18;;;0.80;99.90;;;;;;5015283;28;20040;-72
2020/12/07 07:03:49;;;;;;;14.82;10.02;;;0.70;99.90;;;;;;5014573;28;20093;-73
2020/12/07 07:06:21;;;;;;;13.65;9.60;;;0.80;99.90;;;;;;5015264;28;20022;-72
2020/12/07 07:08:53;;;;;;;17.00;10.27;;;0.80;99.90;;;;;;5018035;28;20033;-72
2020/12/07 07:11:19;;;;;;;13.43;8.63;;;0.80;99.90;;;;;;5035198;28;20060;-74
2020/12/07 07:13:50;;;;;;;13.27;9.60;;;0.80;99.90;;;;;;5034546;28;20029;-72
2020/12/07 07:16:18;;;;;;;16.45;11.77;;;0.80;99.90;;;;;;5034853;28;20025;-72
2020/12/07 07:18:43;;;;;;;17.13;11.00;;;0.80;99.90;;;;;;5036983;28;20037;-73
2020/12/07 07:21:09;;;;;;;19.15;10.88;;;0.70;99.90;;;;;;5058758;28;20032;-72
2020/12/07 07:23:43;;;;;;;19.70;10.57;;;0.80;99.90;;;;;;5062061;28;20070;-72
2020/12/07 07:26:26;;;;;;;17.05;10.95;;;0.80;99.90;;;;;;5061378;28;20017;-72
2020/12/07 07:28:51;;;;;;;24.73;13.30;;;0.80;99.90;;;;;;5061530;28;20017;-72
2020/12/07 07:31:18;;;;;;;18.02;12.00;;;0.80;99.90;;;;;;5058598;28;20053;-71
2020/12/07 07:33:45;;;;;;;18.48;12.23;;;0.90;99.90;;;;;;5040416;28;20052;-72
2020/12/07 07:36:26;;;;;;;16.58;11.55;;;1.00;99.90;;;;;;5043742;28;20036;-73
2020/12/07 07:38:56;;;;;;;18.27;11.80;;;1.40;99.90;;;;;;5042896;28;20017;-71
2020/12/07 07:41:26;;;;;;;19.23;13.15;;;1.90;99.90;;;;;;5055958;28;20013;-70
2020/12/07 07:43:54;;;;;;;15.85;10.43;;;2.60;99.90;;;;;;5061122;28;20059;-70
2020/12/07 07:46:20;;;;;;;12.52;8.98;;;3.30;99.90;;;;;;5061360;28;20108;-70
2020/12/07 07:49:34;;;;;;;10.50;7.25;;;3.90;99.90;;;;;;5062737;28;20027;-71
2020/12/07 08:17:13;;;;;;;8.88;6.97;;;10.00;99.90;;;;;;5059069;28;20067;-65
2020/12/07 08:19:39;;;;;;;7.40;6.30;;;11.20;99.90;;;;;;5057854;28;20456;-65
2020/12/07 08:22:15;;;;;;;6.10;5.50;;;12.60;99.90;;;;;;5056296;28;20642;-65
2020/12/07 08:24:57;;;;;;;7.22;5.88;;;13.30;99.90;;;;;;5057614;28;20104;-65
2020/12/07 08:27:33;;;;;;;7.57;5.32;;;13.70;99.90;;;;;;5057559;28;20049;-65
2020/12/07 08:30:05;;;;;;;8.07;5.10;;;13.70;99.90;;;;;;5057485;28;20043;-65
2020/12/07 08:32:30;;;;;;;5.77;5.17;;;13.70;99.70;;;;;;5042151;28;20037;-66
2020/12/07 08:34:56;;;;;;;8.18;5.28;;;13.60;99.60;;;;;;5031276;28;20026;-66
2020/12/07 08:37:22;;;;;;;5.65;5.15;;;13.40;99.60;;;;;;5032868;28;20037;-65
2020/12/07 08:39:48;;;;;;;6.00;5.40;;;13.20;99.90;;;;;;5034847;28;20091;-66
2020/12/07 08:42:13;;;;;;;9.20;7.15;;;13.10;99.90;;;;;;5034975;28;20029;-67
2020/12/07 08:44:39;;;;;;;12.88;7.50;;;12.50;99.90;;;;;;5039117;28;20022;-64
2020/12/07 08:47:09;;;;;;;10.45;6.00;;;11.80;99.90;;;;;;5038542;28;20471;-65
2020/12/07 08:49:35;;;;;;;12.40;6.30;;;11.10;99.90;;;;;;5036120;28;20025;-65
2020/12/07 08:52:02;;;;;;;7.68;5.38;;;10.40;99.90;;;;;;5036277;28;20436;-65
2020/12/07 08:54:27;;;;;;;10.68;6.10;;;9.90;99.90;;;;;;5033330;28;20487;-65
2020/12/07 08:56:53;;;;;;;8.65;6.05;;;9.90;99.90;;;;;;5032869;28;20032;-65
2020/12/07 08:59:19;;;;;;;6.88;6.18;;;9.20;99.90;;;;;;5032948;28;20537;-66
2020/12/07 09:01:44;;;;;;;6.00;5.20;;;9.20;99.90;;;;;;5032450;28;20091;-65
2020/12/07 09:04:13;;;;;;;5.75;4.63;;;9.10;99.90;;;;;;5032079;28;20014;-66
2020/12/07 09:06:44;;;;;;;8.23;5.18;;;9.00;99.90;;;;;;5041480;28;20022;-66
2020/12/07 09:09:10;;;;;;;6.05;4.95;;;8.20;99.90;;;;;;5042899;28;20024;-64
2020/12/07 09:11:36;;;;;;;5.38;4.88;;;8.30;99.90;;;;;;5042958;28;20086;-65
2020/12/07 09:14:06;;;;;;;7.95;5.47;;;8.00;99.90;;;;;;5038230;28;20053;-65
2020/12/07 09:16:32;;;;;;;8.88;5.55;;;8.70;99.90;;;;;;5039019;28;20109;-64
2020/12/07 09:18:58;;;;;;;6.00;5.45;;;9.70;99.90;;;;;;5040732;28;20037;-65
2020/12/07 09:21:24;;;;;;;6.63;5.47;;;11.00;99.90;;;;;;5038859;28;20396;-65
2020/12/07 09:23:49;;;;;;;5.53;5.03;;;11.90;99.90;;;;;;5043140;28;20387;-65
2020/12/07 09:26:15;;;;;;;5.00;4.60;;;12.50;99.90;;;;;;5043026;28;20025;-65
2020/12/07 09:28:41;;;;;;;5.20;4.00;;;11.90;99.90;;;;;;5043540;28;20108;-66
2020/12/07 09:31:07;;;;;;;4.63;4.22;;;12.20;99.90;;;;;;5043263;28;20033;-65
2020/12/07 09:33:34;;;;;;;4.95;4.45;;;11.50;99.90;;;;;;5043981;28;20028;-65
2020/12/07 09:36:00;;;;;;;5.97;5.38;;;11.90;99.90;;;;;;5047348;28;20052;-66
2020/12/07 09:38:25;;;;;;;5.30;4.18;;;12.20;99.90;;;;;;5036294;28;20451;-66
2020/12/07 09:40:51;;;;;;;5.85;4.25;;;14.10;99.90;;;;;;5035550;28;20029;-68
2020/12/07 09:43:17;;;;;;;5.13;4.63;;;15.90;95.80;;;;;;5034855;28;20021;-65
2020/12/07 09:45:43;;;;;;;6.43;5.15;;;16.80;93.70;;;;;;5035679;28;20049;-65
2020/12/07 09:48:08;;;;;;;8.77;4.97;;;15.80;92.90;;;;;;5035172;28;20029;-65
2020/12/07 09:50:34;;;;;;;5.75;5.25;;;15.60;93.80;;;;;;5035101;28;20064;-65
2020/12/07 09:53:00;;;;;;;7.60;6.15;;;14.10;94.00;;;;;;5035065;28;20101;-64
2020/12/07 09:55:26;;;;;;;6.65;4.32;;;12.80;97.40;;;;;;5035190;28;20430;-65
2020/12/07 09:57:52;;;;;;;4.57;4.18;;;13.10;97.10;;;;;;5035726;28;20030;-65
2020/12/07 10:00:18;;;;;;;4.85;3.72;;;13.50;97.70;;;;;;5048689;28;20057;-65
2020/12/07 10:02:45;;;;;;;3.47;3.20;;;12.00;98.00;;;;;;5036581;28;20063;-64
2020/12/07 10:05:10;;;;;;;3.60;3.30;;;11.80;99.00;;;;;;5034700;28;20025;-64
2020/12/07 10:07:36;;;;;;;5.55;3.50;;;10.80;99.90;;;;;;5035100;28;20032;-66
2020/12/07 10:10:03;;;;;;;4.13;3.72;;;9.40;99.90;;;;;;5034630;28;20436;-65
2020/12/07 10:12:28;;;;;;;5.10;3.20;;;8.80;99.90;;;;;;5037493;28;20045;-64
2020/12/07 10:14:55;;;;;;;4.13;3.80;;;8.70;99.90;;;;;;5039339;28;20439;-64
2020/12/07 10:17:21;;;;;;;4.03;3.65;;;8.40;99.90;;;;;;5034791;28;20072;-65
2020/12/07 10:19:47;;;;;;;6.88;3.72;;;8.30;99.90;;;;;;5036539;28;20033;-66
2020/12/07 10:22:13;;;;;;;4.00;3.63;;;8.70;99.90;;;;;;5037893;28;20040;-65
2020/12/07 10:24:39;;;;;;;5.03;3.75;;;9.60;99.90;;;;;;5034195;28;20068;-72
2020/12/07 10:27:05;;;;;;;3.90;3.20;;;10.30;99.90;;;;;;5031041;28;20471;-71
2020/12/07 10:29:31;;;;;;;4.80;3.55;;;10.10;99.90;;;;;;5033516;28;20033;-71
2020/12/07 10:31:57;;;;;;;3.80;3.47;;;9.50;99.90;;;;;;5033468;28;20112;-71
2020/12/07 10:34:23;;;;;;;5.03;3.90;;;9.10;99.90;;;;;;5032279;28;20097;-71
2020/12/07 10:36:49;;;;;;;5.43;3.42;;;8.80;99.90;;;;;;5033390;28;20021;-70
2020/12/07 10:39:15;;;;;;;3.88;3.58;;;8.50;99.90;;;;;;5033064;28;20071;-70
2020/12/07 10:41:41;;;;;;;3.90;3.60;;;8.10;99.90;;;;;;5032556;28;20069;-70
2020/12/07 10:44:07;;;;;;;4.57;4.20;;;7.70;99.90;;;;;;5032301;28;20053;-71
2020/12/07 10:46:33;;;;;;;4.60;3.80;;;7.60;99.90;;;;;;5031833;28;20109;-69
2020/12/07 10:48:58;;;;;;;3.90;3.50;;;7.70;99.90;;;;;;5032195;28;20108;-69
2020/12/07 10:51:24;;;;;;;3.80;3.50;;;7.80;99.90;;;;;;5032360;28;20542;-70
2020/12/07 10:53:50;;;;;;;3.45;3.15;;;7.80;99.90;;;;;;5031263;28;20026;-69
2020/12/07 10:56:15;;;;;;;4.63;3.58;;;7.60;99.90;;;;;;5033610;28;20029;-68
2020/12/07 10:58:42;;;;;;;4.47;3.65;;;7.80;99.90;;;;;;5030946;28;20034;-69
2020/12/07 11:01:09;;;;;;;4.55;3.10;;;8.10;99.90;;;;;;5036595;28;20070;-69
2020/12/07 11:03:35;;;;;;;4.05;3.55;;;8.10;99.90;;;;;;5031721;28;20022;-69
2020/12/07 11:06:13;;;;;;;4.00;3.63;;;7.60;99.90;;;;;;5032335;28;20028;-69
2020/12/07 11:08:48;;;;;;;3.67;3.38;;;7.70;99.90;;;;;;5033286;28;20554;-69
2020/12/07 11:11:14;;;;;;;3.85;3.55;;;7.60;99.90;;;;;;5042548;28;20024;-69
2020/12/07 11:13:40;;;;;;;4.35;3.95;;;7.50;99.90;;;;;;5053456;28;20031;-69
2020/12/07 11:16:10;;;;;;;3.60;3.30;;;7.40;99.90;;;;;;5053534;28;20028;-69
2020/12/07 11:18:36;;;;;;;3.67;3.38;;;7.50;99.90;;;;;;5053511;28;20438;-69
2020/12/07 11:21:03;;;;;;;4.32;3.92;;;7.60;99.90;;;;;;5053485;28;20533;-70
2020/12/07 11:23:28;;;;;;;4.00;3.35;;;7.40;99.90;;;;;;5052612;28;20017;-70
2020/12/07 11:25:54;;;;;;;3.47;3.15;;;7.00;99.90;;;;;;5053436;28;20071;-69
2020/12/07 11:28:19;;;;;;;5.35;4.35;;;6.80;99.90;;;;;;5053409;28;20032;-69
2020/12/07 11:30:45;;;;;;;6.68;6.07;;;6.80;99.90;;;;;;5028046;28;20036;-69
2020/12/07 11:33:11;;;;;;;8.05;7.30;;;6.60;99.90;;;;;;5016768;28;20037;-70
2020/12/07 11:35:37;;;;;;;7.65;6.95;;;6.30;99.90;;;;;;5013325;28;20391;-70
2020/12/07 11:38:12;;;;;;;7.18;6.38;;;6.20;99.90;;;;;;5012436;28;20022;-69
2020/12/07 11:41:12;;;;;;;6.32;5.72;;;5.90;99.90;;;;;;5013973;28;20392;-70
2020/12/07 11:46:31;;;;;;;6.20;5.60;;;5.90;99.90;;;;;;5013622;28;20037;-70
2020/12/07 11:48:57;;;;;;;5.88;5.28;;;5.90;99.90;;;;;;5012724;28;20080;-70
2020/12/07 11:51:25;;;;;;;6.35;5.68;;;5.90;99.90;;;;;;5011800;28;20026;-70
2020/12/07 11:53:52;;;;;;;5.28;4.82;;;5.90;99.90;;;;;;5010762;28;20425;-70
2020/12/07 11:56:28;;;;;;;5.03;4.50;;;5.90;99.90;;;;;;5012948;28;20029;-70
2020/12/07 11:58:55;;;;;;;8.65;6.03;;;5.90;99.90;;;;;;5011871;28;20558;-70
2020/12/07 12:01:21;;;;;;;5.60;4.78;;;5.90;99.90;;;;;;5015556;28;20029;-70
2020/12/07 12:03:46;;;;;;;4.95;4.32;;;5.80;99.90;;;;;;5030298;28;20029;-70
2020/12/07 12:06:20;;;;;;;4.50;4.10;;;5.80;99.90;;;;;;5031260;28;20446;-70
2020/12/07 12:08:45;;;;;;;4.75;4.22;;;5.80;99.90;;;;;;5032433;28;20028;-71
2020/12/07 12:11:11;;;;;;;8.02;4.80;;;5.80;99.90;;;;;;5032242;28;20125;-71
2020/12/07 12:13:36;;;;;;;5.50;4.88;;;5.80;99.90;;;;;;5031974;28;20114;-69
2020/12/07 12:16:02;;;;;;;5.53;4.10;;;5.80;99.90;;;;;;5032075;28;20453;-71
2020/12/07 12:18:29;;;;;;;5.22;4.10;;;5.70;99.90;;;;;;5031612;28;20490;-71
2020/12/07 12:20:55;;;;;;;5.32;4.82;;;5.70;99.90;;;;;;5032796;28;20563;-72
2020/12/07 12:23:21;;;;;;;5.90;5.30;;;5.60;99.90;;;;;;5023499;28;20022;-73
2020/12/07 12:25:46;;;;;;;4.30;3.90;;;5.80;99.90;;;;;;5030512;28;20033;-73
2020/12/07 12:28:12;;;;;;;4.20;3.78;;;5.90;99.90;;;;;;5030627;28;20028;-70
2020/12/07 12:30:39;;;;;;;4.60;3.60;;;5.90;99.90;;;;;;5030102;28;20033;-70
2020/12/07 12:33:05;;;;;;;2.92;2.72;;;5.90;99.90;;;;;;5027731;28;20033;-72
2020/12/07 12:35:31;;;;;;;3.08;2.88;;;5.90;99.90;;;;;;5031208;28;20030;-71
2020/12/07 12:37:56;;;;;;;3.60;3.30;;;5.80;99.90;;;;;;5031905;28;20052;-72
2020/12/07 12:40:22;;;;;;;4.93;4.00;;;5.60;99.90;;;;;;5031504;28;20025;-73
2020/12/07 12:42:48;;;;;;;6.13;4.30;;;5.40;99.90;;;;;;5041404;28;20029;-73
2020/12/07 12:45:13;;;;;;;4.65;3.85;;;5.40;99.90;;;;;;5031657;28;20021;-72
2020/12/07 12:47:39;;;;;;;5.18;4.03;;;5.30;99.90;;;;;;5031819;28;20029;-71
2020/12/07 12:50:05;;;;;;;4.80;3.45;;;5.30;99.90;;;;;;5030970;28;20105;-70
2020/12/07 12:52:31;;;;;;;3.60;3.30;;;5.20;99.90;;;;;;5030230;28;20075;-72
2020/12/07 12:54:57;;;;;;;4.15;3.33;;;5.30;99.90;;;;;;5030713;28;20112;-72
2020/12/07 12:57:23;;;;;;;5.22;3.60;;;5.30;99.90;;;;;;5031561;28;20021;-72
2020/12/07 12:59:48;;;;;;;4.00;3.35;;;5.30;99.90;;;;;;5031647;28;20076;-74
2020/12/07 13:02:14;;;;;;;3.78;3.47;;;5.30;99.90;;;;;;5030714;28;20546;-73
2020/12/07 13:04:40;;;;;;;3.88;3.58;;;5.30;99.90;;;;;;5030258;28;20285;-73
2020/12/07 13:07:06;;;;;;;3.08;2.80;;;5.20;99.90;;;;;;5031753;28;20028;-73
2020/12/07 13:09:32;;;;;;;3.40;3.10;;;5.20;99.90;;;;;;5033059;28;20029;-73
2020/12/07 13:11:58;;;;;;;3.78;3.33;;;5.30;99.90;;;;;;5035533;28;20480;-73
2020/12/07 13:14:23;;;;;;;4.68;4.03;;;5.40;99.90;;;;;;5034388;28;20438;-73
2020/12/07 13:19:24;;;;;;;4.35;3.92;;;5.60;99.90;;;;;;5035202;28;20038;-73
2020/12/07 13:22:16;;;;;;;4.50;4.10;;;5.70;99.90;;;;;;5035123;28;20079;-73
2020/12/07 13:29:45;;;;;;;4.97;3.88;;;5.40;99.90;;;;;;5040308;23;20034;-71
2020/12/07 13:32:10;;;;;;;3.47;3.13;;;5.30;99.90;;;;;;4978452;28;20053;-74